createdAt,value
2017-11-08T00:00:53.701Z,0
2017-11-08T00:01:53.701Z,0
2017-11-08T00:02:54.060Z,0
2017-11-08T00:03:54.079Z,0
2017-11-08T00:05:08.383Z,0
2017-11-08T00:05:53.781Z,0
2017-11-08T00:06:53.819Z,0
2017-11-08T00:07:53.498Z,0
2017-11-08T00:08:53.833Z,0
2017-11-08T00:09:54.179Z,0
2017-11-08T00:10:53.870Z,0
2017-11-08T00:11:54.206Z,0
2017-11-08T00:12:53.907Z,0
2017-11-08T00:13:53.613Z,0
2017-11-08T00:14:54.268Z,0
2017-11-08T00:15:53.961Z,0
2017-11-08T00:16:53.994Z,0
2017-11-08T00:17:53.683Z,0
2017-11-08T00:18:54.328Z,0
2017-11-08T00:19:54.369Z,0
2017-11-08T00:21:08.982Z,0
2017-11-08T00:21:54.407Z,0
2017-11-08T00:23:09.028Z,0
2017-11-08T00:23:54.099Z,0
2017-11-08T00:24:54.123Z,0
2017-11-08T00:25:54.472Z,0
2017-11-08T00:26:53.846Z,0
2017-11-08T00:27:54.496Z,0
2017-11-08T00:28:54.529Z,0
2017-11-08T00:29:54.236Z,0
2017-11-08T00:30:54.221Z,0
2017-11-08T00:31:54.574Z,0
2017-11-08T00:32:54.609Z,0
2017-11-08T00:33:53.967Z,0
2017-11-08T00:34:54.629Z,0
2017-11-08T00:35:54.340Z,0
2017-11-08T00:37:08.947Z,0
2017-11-08T00:37:54.684Z,0
2017-11-08T00:38:54.735Z,0
2017-11-08T00:39:54.733Z,0
2017-11-08T00:40:54.091Z,0
2017-11-08T00:41:54.759Z,0
2017-11-08T00:42:54.766Z,0
2017-11-08T00:43:54.464Z,0
2017-11-08T00:44:54.797Z,0
2017-11-08T00:46:09.117Z,0
2017-11-08T00:47:54.909Z,0
2017-11-08T00:48:54.585Z,0
2017-11-08T00:49:54.264Z,0
2017-11-08T00:51:09.538Z,0
2017-11-08T00:52:24.152Z,0
2017-11-08T00:53:09.556Z,0
2017-11-08T00:53:54.335Z,0
2017-11-08T00:54:55.008Z,0
2017-11-08T00:55:55.008Z,0
2017-11-08T00:56:54.701Z,0
2017-11-08T00:57:55.035Z,0
2017-11-08T00:59:09.356Z,0
2017-11-08T00:59:55.093Z,0
2017-11-08T01:01:09.726Z,0
2017-11-08T01:01:54.802Z,0
2017-11-08T01:02:54.820Z,0
2017-11-08T01:03:55.164Z,0
2017-11-08T01:04:55.195Z,0
2017-11-08T01:05:55.188Z,0
2017-11-08T01:06:55.195Z,0
2017-11-08T01:08:09.525Z,0
2017-11-08T01:08:55.248Z,0
2017-11-08T01:09:55.285Z,0
2017-11-08T01:11:09.908Z,0
2017-11-08T01:11:54.349Z,0
2017-11-08T01:12:55.010Z,0
2017-11-08T01:13:55.007Z,0
2017-11-08T01:14:55.376Z,0
2017-11-08T01:15:54.742Z,0
2017-11-08T01:16:55.078Z,0
2017-11-08T01:17:55.093Z,0
2017-11-08T01:18:54.788Z,0
2017-11-08T01:19:55.442Z,0
2017-11-08T01:20:55.459Z,0
2017-11-08T01:21:55.165Z,0
2017-11-08T01:22:54.850Z,0
2017-11-08T01:24:10.131Z,0
2017-11-08T01:24:55.221Z,0
2017-11-08T01:25:55.244Z,0
2017-11-08T01:26:55.241Z,0
2017-11-08T01:27:55.266Z,0
2017-11-08T01:28:55.294Z,0
2017-11-08T01:29:55.641Z,0
2017-11-08T01:30:55.647Z,0
2017-11-08T01:31:55.669Z,0
2017-11-08T01:32:55.676Z,0
2017-11-08T01:33:55.377Z,0
2017-11-08T01:34:55.063Z,0
2017-11-08T01:35:55.415Z,0
2017-11-08T01:36:55.758Z,0
2017-11-08T01:37:55.440Z,0
2017-11-08T01:38:55.779Z,0
2017-11-08T01:40:10.423Z,0
2017-11-08T01:40:55.493Z,0
2017-11-08T01:42:10.432Z,0
2017-11-08T01:42:55.858Z,0
2017-11-08T01:43:55.879Z,0
2017-11-08T01:44:55.555Z,0
2017-11-08T01:45:55.582Z,0
2017-11-08T01:46:55.963Z,0
2017-11-08T01:48:10.548Z,0
2017-11-08T01:48:55.978Z,0
2017-11-08T01:50:55.991Z,0
2017-11-08T01:51:56.019Z,0
2017-11-08T01:52:56.025Z,0
2017-11-08T01:54:10.671Z,0
2017-11-08T01:54:55.416Z,0
2017-11-08T01:56:10.374Z,0
2017-11-08T01:56:56.105Z,0
2017-11-08T01:58:56.160Z,0
2017-11-08T01:59:56.157Z,0
2017-11-08T02:01:56.196Z,0
2017-11-08T02:03:10.828Z,0
2017-11-08T02:03:55.894Z,0
2017-11-08T02:04:55.920Z,0
2017-11-08T02:05:56.254Z,0
2017-11-08T02:06:55.951Z,0
2017-11-08T02:07:56.637Z,0
2017-11-08T02:08:56.313Z,0
2017-11-08T02:09:56.032Z,0
2017-11-08T02:10:56.356Z,0
2017-11-08T02:12:10.969Z,0
2017-11-08T02:13:56.078Z,0
2017-11-08T02:14:56.435Z,0
2017-11-08T02:16:11.048Z,0
2017-11-08T02:16:56.470Z,0
2017-11-08T02:17:56.155Z,0
2017-11-08T02:18:56.511Z,0
2017-11-08T02:19:55.873Z,0
2017-11-08T02:20:56.539Z,0
2017-11-08T02:21:55.892Z,0
2017-11-08T02:22:56.585Z,0
2017-11-08T02:24:56.270Z,0
2017-11-08T02:26:10.891Z,0
2017-11-08T02:27:10.910Z,0
2017-11-08T02:28:56.671Z,0
2017-11-08T02:30:56.381Z,0
2017-11-08T02:32:56.104Z,0
2017-11-08T02:34:11.355Z,0
2017-11-08T02:34:56.148Z,0
2017-11-08T02:35:56.789Z,0
2017-11-08T02:36:56.815Z,0
2017-11-08T02:37:56.186Z,0
2017-11-08T02:38:55.879Z,0
2017-11-08T02:39:56.521Z,0
2017-11-08T02:40:56.891Z,0
2017-11-08T02:42:56.924Z,0
2017-11-08T02:43:56.932Z,0
2017-11-08T02:44:56.930Z,0
2017-11-08T02:45:56.316Z,0
2017-11-08T02:46:56.677Z,0
2017-11-08T02:47:56.680Z,0
2017-11-08T02:49:11.617Z,0
2017-11-08T02:49:57.024Z,0
2017-11-08T02:50:56.410Z,0
2017-11-08T02:51:56.753Z,0
2017-11-08T02:52:56.431Z,0
2017-11-08T02:53:57.105Z,0
2017-11-08T02:54:57.110Z,0
2017-11-08T02:55:56.818Z,0
2017-11-08T02:56:57.153Z,0
2017-11-08T02:57:57.152Z,0
2017-11-08T02:59:11.795Z,0
2017-11-08T02:59:57.221Z,0
2017-11-08T03:00:56.914Z,0
2017-11-08T03:01:56.593Z,0
2017-11-08T03:02:57.244Z,0
2017-11-08T03:03:57.253Z,0
2017-11-08T03:04:56.977Z,0
2017-11-08T03:05:56.973Z,0
2017-11-08T03:06:57.329Z,0
2017-11-08T03:07:56.716Z,0
2017-11-08T03:08:57.364Z,0
2017-11-08T03:09:57.040Z,0
2017-11-08T03:10:57.081Z,0
2017-11-08T03:12:57.111Z,0
2017-11-08T03:13:56.788Z,0
2017-11-08T03:15:12.068Z,0
2017-11-08T03:16:12.079Z,0
2017-11-08T03:16:57.194Z,0
2017-11-08T03:18:12.123Z,0
2017-11-08T03:18:57.217Z,0
2017-11-08T03:19:57.565Z,0
2017-11-08T03:20:56.927Z,0
2017-11-08T03:21:57.276Z,0
2017-11-08T03:22:57.278Z,0
2017-11-08T03:24:11.580Z,0
2017-11-08T03:24:57.308Z,0
2017-11-08T03:25:57.370Z,0
2017-11-08T03:27:57.055Z,0
2017-11-08T03:28:57.369Z,0
2017-11-08T03:29:57.396Z,0
2017-11-08T03:31:12.347Z,0
2017-11-08T03:31:57.776Z,0
2017-11-08T03:32:57.461Z,0
2017-11-08T03:33:57.802Z,0
2017-11-08T03:35:12.420Z,0
2017-11-08T03:36:12.435Z,0
2017-11-08T03:36:57.535Z,0
2017-11-08T03:37:57.842Z,0
2017-11-08T03:38:57.877Z,0
2017-11-08T03:39:57.568Z,0
2017-11-08T03:40:57.588Z,0
2017-11-08T03:41:57.594Z,0
2017-11-08T03:42:57.939Z,0
2017-11-08T03:43:57.976Z,0
2017-11-08T03:44:57.657Z,0
2017-11-08T03:45:57.684Z,0
2017-11-08T03:47:12.306Z,0
2017-11-08T03:47:57.725Z,0
2017-11-08T03:48:57.409Z,0
2017-11-08T03:50:12.363Z,0
2017-11-08T03:50:57.785Z,0
2017-11-08T03:51:58.111Z,0
2017-11-08T03:52:57.465Z,0
2017-11-08T03:53:57.829Z,0
2017-11-08T03:54:58.176Z,0
2017-11-08T03:55:57.555Z,0
2017-11-08T03:56:58.203Z,0
2017-11-08T03:57:58.212Z,0
2017-11-08T03:58:57.912Z,0
2017-11-08T03:59:57.615Z,0
2017-11-08T04:00:58.256Z,0
2017-11-08T04:02:27.169Z,0
2017-11-08T04:02:58.292Z,0
2017-11-08T04:03:58.013Z,0
2017-11-08T04:04:58.343Z,0
2017-11-08T04:05:58.022Z,0
2017-11-08T04:07:58.389Z,0
2017-11-08T04:08:58.411Z,0
2017-11-08T04:10:12.725Z,0
2017-11-08T04:10:58.117Z,0
2017-11-08T04:11:58.465Z,0
2017-11-08T04:12:58.164Z,0
2017-11-08T04:13:58.181Z,0
2017-11-08T04:14:58.508Z,0
2017-11-08T04:15:57.881Z,0
2017-11-08T04:17:13.158Z,0
2017-11-08T04:17:58.579Z,0
2017-11-08T04:18:58.569Z,0
2017-11-08T04:19:58.589Z,0
2017-11-08T04:20:58.649Z,0
2017-11-08T04:21:58.649Z,0
2017-11-08T04:22:58.022Z,0
2017-11-08T04:24:58.369Z,0
2017-11-08T04:25:58.379Z,0
2017-11-08T04:26:58.718Z,0
2017-11-08T04:28:58.765Z,0
2017-11-08T04:29:58.448Z,0
2017-11-08T04:30:58.150Z,0
2017-11-08T04:31:58.494Z,0
2017-11-08T04:32:58.511Z,0
2017-11-08T04:34:13.128Z,0
2017-11-08T04:34:58.539Z,0
2017-11-08T04:35:58.578Z,0
2017-11-08T04:36:58.912Z,0
2017-11-08T04:37:58.269Z,0
2017-11-08T04:38:58.607Z,0
2017-11-08T04:39:58.945Z,0
2017-11-08T04:40:58.954Z,0
2017-11-08T04:41:59.001Z,0
2017-11-08T04:42:59.006Z,0
2017-11-08T04:43:59.038Z,0
2017-11-08T04:44:58.712Z,0
2017-11-08T04:45:59.064Z,0
2017-11-08T04:46:58.756Z,0
2017-11-08T04:47:59.105Z,0
2017-11-08T04:48:59.123Z,0
2017-11-08T04:50:13.723Z,0
2017-11-08T04:50:58.825Z,0
2017-11-08T04:51:59.167Z,0
2017-11-08T04:52:59.175Z,0
2017-11-08T04:53:59.202Z,0
2017-11-08T04:54:58.578Z,0
2017-11-08T04:55:59.230Z,0
2017-11-08T04:57:13.861Z,0
2017-11-08T04:58:13.872Z,0
2017-11-08T04:58:58.950Z,0
2017-11-08T04:59:59.296Z,0
2017-11-08T05:00:58.999Z,0
2017-11-08T05:01:59.018Z,0
2017-11-08T05:02:59.371Z,0
2017-11-08T05:03:59.057Z,0
2017-11-08T05:04:59.376Z,0
2017-11-08T05:06:14.014Z,0
2017-11-08T05:06:59.109Z,0
2017-11-08T05:07:59.445Z,0
2017-11-08T05:08:59.452Z,0
2017-11-08T05:09:59.162Z,0
2017-11-08T05:10:59.194Z,0
2017-11-08T05:11:59.518Z,0
2017-11-08T05:12:59.566Z,0
2017-11-08T05:14:59.244Z,0
2017-11-08T05:16:13.877Z,0
2017-11-08T05:16:59.286Z,0
2017-11-08T05:17:59.304Z,0
2017-11-08T05:18:59.631Z,0
2017-11-08T05:19:59.339Z,0
2017-11-08T05:20:59.677Z,0
2017-11-08T05:22:14.308Z,0
2017-11-08T05:23:14.335Z,0
2017-11-08T05:23:59.430Z,0
2017-11-08T05:24:59.732Z,0
2017-11-08T05:25:59.463Z,0
2017-11-08T05:26:59.460Z,0
2017-11-08T05:27:59.501Z,0
2017-11-08T05:28:59.824Z,0
2017-11-08T05:30:59.874Z,0
2017-11-08T05:31:59.881Z,0
2017-11-08T05:33:14.178Z,0
2017-11-08T05:33:59.603Z,0
2017-11-08T05:36:14.554Z,0
2017-11-08T05:37:14.575Z,0
2017-11-08T05:37:59.342Z,0
2017-11-08T05:38:59.693Z,0
2017-11-08T05:40:14.309Z,4
2017-11-08T05:40:59.732Z,0
2017-11-08T05:41:59.738Z,4
2017-11-08T05:43:00.076Z,4
2017-11-08T05:44:14.380Z,8
2017-11-08T05:45:00.118Z,4
2017-11-08T05:45:59.812Z,8
2017-11-08T05:47:14.425Z,8
2017-11-08T05:47:59.510Z,12
2017-11-08T05:49:00.196Z,12
2017-11-08T05:49:59.887Z,12
2017-11-08T05:50:59.894Z,16
2017-11-08T05:51:59.592Z,16
2017-11-08T05:53:00.282Z,20
2017-11-08T05:53:59.962Z,28
2017-11-08T05:55:00.276Z,32
2017-11-08T05:56:00.298Z,36
2017-11-08T05:56:59.985Z,44
2017-11-08T05:58:00.341Z,48
2017-11-08T05:59:00.354Z,56
2017-11-08T06:00:00.357Z,64
2017-11-08T06:01:00.074Z,72
2017-11-08T06:02:15.012Z,84
2017-11-08T06:03:00.102Z,96
2017-11-08T06:04:00.119Z,104
2017-11-08T06:05:00.147Z,116
2017-11-08T06:06:00.152Z,132
2017-11-08T06:07:00.492Z,148
2017-11-08T06:07:59.879Z,160
2017-11-08T06:09:14.814Z,180
2017-11-08T06:10:14.843Z,196
2017-11-08T06:11:00.243Z,208
2017-11-08T06:12:00.593Z,228
2017-11-08T06:13:00.277Z,244
2017-11-08T06:14:00.610Z,264
2017-11-08T06:15:00.655Z,284
2017-11-08T06:16:00.658Z,308
2017-11-08T06:17:00.704Z,324
2017-11-08T06:18:00.358Z,348
2017-11-08T06:19:00.389Z,368
2017-11-08T06:20:00.412Z,392
2017-11-08T06:22:01.123Z,440
2017-11-08T06:23:00.781Z,468
2017-11-08T06:24:00.777Z,496
2017-11-08T06:25:15.414Z,524
2017-11-08T06:26:00.513Z,548
2017-11-08T06:27:00.874Z,580
2017-11-08T06:28:00.225Z,604
2017-11-08T06:29:00.566Z,616
2017-11-08T06:30:00.916Z,628
2017-11-08T06:31:00.592Z,636
2017-11-08T06:33:00.937Z,624
2017-11-08T06:34:00.006Z,652
2017-11-08T06:35:00.692Z,664
2017-11-08T06:36:15.622Z,632
2017-11-08T06:37:00.376Z,616
2017-11-08T06:38:15.642Z,592
2017-11-08T06:39:01.040Z,564
2017-11-08T06:40:00.755Z,536
2017-11-08T06:42:01.105Z,492
2017-11-08T06:43:00.490Z,456
2017-11-08T06:45:00.534Z,432
2017-11-08T06:46:01.189Z,436
2017-11-08T06:47:00.870Z,476
2017-11-08T06:48:00.891Z,500
2017-11-08T06:49:00.912Z,524
2017-11-08T06:50:01.267Z,548
2017-11-08T06:51:01.299Z,532
2017-11-08T06:53:00.674Z,584
2017-11-08T06:54:01.320Z,604
2017-11-08T06:55:01.018Z,660
2017-11-08T06:57:30.258Z,752
2017-11-08T06:58:01.084Z,744
2017-11-08T06:59:01.424Z,748
2017-11-08T07:00:01.114Z,784
2017-11-08T07:01:01.445Z,820
2017-11-08T07:02:01.468Z,916
2017-11-08T07:03:00.500Z,992
2017-11-08T07:04:01.175Z,1076
2017-11-08T07:05:01.197Z,1216
2017-11-08T07:06:01.535Z,1488
2017-11-08T07:08:01.248Z,2228
2017-11-08T07:10:01.279Z,3520
2017-11-08T07:11:01.613Z,3992
2017-11-08T07:13:01.012Z,4644
2017-11-08T07:14:01.679Z,4784
2017-11-08T07:15:01.683Z,4872
2017-11-08T07:16:16.321Z,5056
2017-11-08T07:17:01.392Z,5192
2017-11-08T07:18:01.415Z,5368
2017-11-08T07:19:01.765Z,5572
2017-11-08T07:20:16.059Z,5772
2017-11-08T07:21:01.819Z,5888
2017-11-08T07:22:16.094Z,6188
2017-11-08T07:23:01.842Z,6420
2017-11-08T07:24:01.535Z,6600
2017-11-08T07:25:01.561Z,6772
2017-11-08T07:26:01.554Z,6900
2017-11-08T07:27:01.268Z,7008
2017-11-08T07:28:01.930Z,7100
2017-11-08T07:31:01.653Z,7384
2017-11-08T07:33:02.015Z,7520
2017-11-08T07:34:02.058Z,7632
2017-11-08T07:35:02.050Z,7732
2017-11-08T07:36:01.442Z,7824
2017-11-08T07:37:02.079Z,7876
2017-11-08T07:38:02.115Z,7988
2017-11-08T07:39:16.746Z,8004
2017-11-08T07:40:01.511Z,7876
2017-11-08T07:42:16.479Z,8360
2017-11-08T07:44:16.515Z,8556
2017-11-08T07:45:16.857Z,8596
2017-11-08T07:46:02.264Z,8636
2017-11-08T07:47:02.279Z,8692
2017-11-08T07:48:02.313Z,8764
2017-11-08T07:49:01.998Z,8788
2017-11-08T07:50:02.029Z,8804
2017-11-08T07:51:02.368Z,8736
2017-11-08T07:52:02.056Z,8668
2017-11-08T07:53:02.400Z,8648
2017-11-08T07:54:02.094Z,8700
2017-11-08T07:55:02.159Z,8804
2017-11-08T07:56:17.057Z,8916
2017-11-08T07:57:02.160Z,8948
2017-11-08T07:58:02.479Z,9012
2017-11-08T07:59:02.199Z,9092
2017-11-08T08:00:16.819Z,9192
2017-11-08T08:01:02.240Z,9156
2017-11-08T08:02:17.180Z,9132
2017-11-08T08:03:02.591Z,9084
2017-11-08T08:04:02.599Z,9088
2017-11-08T08:06:02.318Z,8856
2017-11-08T08:07:02.338Z,8548
2017-11-08T08:08:02.690Z,7848
2017-11-08T08:09:02.690Z,7632
2017-11-08T08:10:02.396Z,7748
2017-11-08T08:11:02.717Z,7928
2017-11-08T08:12:02.432Z,8220
2017-11-08T08:13:02.444Z,8256
2017-11-08T08:14:02.805Z,8364
2017-11-08T08:15:02.806Z,8556
2017-11-08T08:16:17.437Z,8444
2017-11-08T08:17:02.865Z,8284
2017-11-08T08:18:02.893Z,8124
2017-11-08T08:20:02.269Z,7612
2017-11-08T08:21:02.924Z,7404
2017-11-08T08:22:02.944Z,7700
2017-11-08T08:24:02.342Z,8440
2017-11-08T08:25:02.683Z,8728
2017-11-08T08:26:03.020Z,8976
2017-11-08T08:27:02.748Z,9288
2017-11-08T08:28:02.403Z,9136
2017-11-08T08:29:17.359Z,9232
2017-11-08T08:30:02.777Z,9380
2017-11-08T08:31:02.793Z,9308
2017-11-08T08:32:17.427Z,9528
2017-11-08T08:33:03.178Z,9832
2017-11-08T08:34:03.175Z,10152
2017-11-08T08:35:03.196Z,10148
2017-11-08T08:36:02.893Z,9748
2017-11-08T08:38:02.933Z,7820
2017-11-08T08:39:02.961Z,7828
2017-11-08T08:40:17.568Z,7584
2017-11-08T08:41:02.975Z,7420
2017-11-08T08:42:03.322Z,7280
2017-11-08T08:43:02.709Z,7280
2017-11-08T08:44:03.364Z,7224
2017-11-08T08:45:03.054Z,7376
2017-11-08T08:46:02.744Z,7144
2017-11-08T08:47:18.030Z,6580
2017-11-08T08:48:03.431Z,6456
2017-11-08T08:49:02.812Z,6524
2017-11-08T08:50:03.157Z,6720
2017-11-08T08:51:03.491Z,6976
2017-11-08T08:53:03.209Z,6568
2017-11-08T08:54:03.563Z,6208
2017-11-08T08:55:03.580Z,5996
2017-11-08T08:56:03.282Z,5832
2017-11-08T08:57:03.289Z,5600
2017-11-08T08:58:03.645Z,5612
2017-11-08T08:59:03.652Z,5552
2017-11-08T09:00:03.696Z,5420
2017-11-08T09:01:03.693Z,5500
2017-11-08T09:03:03.399Z,5516
2017-11-08T09:04:03.423Z,5496
2017-11-08T09:05:03.779Z,5676
2017-11-08T09:06:03.798Z,6028
2017-11-08T09:07:03.495Z,6044
2017-11-08T09:08:18.430Z,6132
2017-11-08T09:09:03.516Z,6092
2017-11-08T09:10:18.488Z,5988
2017-11-08T09:11:03.892Z,6048
2017-11-08T09:12:03.579Z,6060
2017-11-08T09:13:03.621Z,6004
2017-11-08T09:14:03.927Z,5912
2017-11-08T09:15:03.653Z,5804
2017-11-08T09:16:03.965Z,5704
2017-11-08T09:17:03.684Z,5660
2017-11-08T09:18:04.026Z,5660
2017-11-08T09:19:18.633Z,5852
2017-11-08T09:20:18.658Z,6212
2017-11-08T09:21:04.091Z,6220
2017-11-08T09:22:04.098Z,6140
2017-11-08T09:23:04.098Z,6216
2017-11-08T09:24:18.732Z,6828
2017-11-08T09:25:04.148Z,7256
2017-11-08T09:26:03.837Z,8068
2017-11-08T09:27:04.170Z,8164
2017-11-08T09:28:03.558Z,7700
2017-11-08T09:29:04.241Z,8148
2017-11-08T09:30:04.241Z,8188
2017-11-08T09:31:04.267Z,7968
2017-11-08T09:32:03.971Z,8460
2017-11-08T09:33:18.895Z,9532
2017-11-08T09:34:03.995Z,9364
2017-11-08T09:35:18.944Z,9236
2017-11-08T09:36:04.021Z,9132
2017-11-08T09:38:04.396Z,9676
2017-11-08T09:40:04.424Z,9220
2017-11-08T09:41:04.466Z,8852
2017-11-08T09:42:04.151Z,8800
2017-11-08T09:43:19.104Z,8640
2017-11-08T09:44:04.520Z,8752
2017-11-08T09:45:03.876Z,8964
2017-11-08T09:46:04.223Z,8668
2017-11-08T09:47:04.234Z,8440
2017-11-08T09:48:04.246Z,9252
2017-11-08T09:49:03.950Z,9752
2017-11-08T09:50:04.321Z,9872
2017-11-08T09:51:19.240Z,10008
2017-11-08T09:52:04.371Z,10008
2017-11-08T09:53:04.033Z,9532
2017-11-08T09:54:03.730Z,9560
2017-11-08T09:55:04.404Z,9380
2017-11-08T09:56:04.753Z,9040
2017-11-08T09:57:04.754Z,8432
2017-11-08T09:58:04.794Z,7968
2017-11-08T10:00:04.589Z,7052
2017-11-08T10:03:04.892Z,6484
2017-11-08T10:04:04.904Z,6916
2017-11-08T10:05:04.589Z,7112
2017-11-08T10:06:04.950Z,6844
2017-11-08T10:07:19.586Z,6900
2017-11-08T10:08:19.260Z,6888
2017-11-08T10:09:04.784Z,6916
2017-11-08T10:10:04.604Z,7048
2017-11-08T10:11:05.036Z,7140
2017-11-08T10:12:05.059Z,7044
2017-11-08T10:13:04.852Z,6956
2017-11-08T10:15:19.067Z,6632
2017-11-08T10:16:04.487Z,6484
2017-11-08T10:19:05.188Z,6296
2017-11-08T10:20:19.816Z,6124
2017-11-08T10:21:04.893Z,6040
2017-11-08T10:22:19.844Z,5916
2017-11-08T10:23:04.620Z,5860
2017-11-08T10:24:19.576Z,5748
2017-11-08T10:25:05.327Z,5708
2017-11-08T10:27:19.948Z,5784
2017-11-08T10:28:05.384Z,5860
2017-11-08T10:32:05.100Z,6168
2017-11-08T10:33:05.135Z,6044
2017-11-08T10:34:05.465Z,6480
2017-11-08T10:35:05.193Z,6672
2017-11-08T10:36:20.129Z,6932
2017-11-08T10:37:19.825Z,6952
2017-11-08T10:38:05.232Z,7080
2017-11-08T10:39:05.270Z,7336
2017-11-08T10:40:05.591Z,7400
2017-11-08T10:41:05.286Z,7380
2017-11-08T10:42:05.626Z,7212
2017-11-08T10:43:05.644Z,6756
2017-11-08T10:45:05.661Z,7412
2017-11-08T10:46:19.962Z,7336
2017-11-08T10:47:05.395Z,7048
2017-11-08T10:48:05.423Z,6936
2017-11-08T10:49:05.432Z,6744
2017-11-08T10:50:05.764Z,6652
2017-11-08T10:51:05.780Z,6460
2017-11-08T10:52:05.472Z,6316
2017-11-08T10:53:20.101Z,6200
2017-11-08T10:54:20.437Z,6144
2017-11-08T10:56:05.559Z,5672
2017-11-08T10:57:05.551Z,5364
2017-11-08T10:58:05.917Z,5320
2017-11-08T10:59:05.617Z,5452
2017-11-08T11:00:05.626Z,5632
2017-11-08T11:02:05.661Z,6320
2017-11-08T11:03:06.052Z,6476
2017-11-08T11:04:06.051Z,6432
2017-11-08T11:05:06.049Z,6324
2017-11-08T11:06:20.660Z,6376
2017-11-08T11:07:06.094Z,6380
2017-11-08T11:08:20.712Z,6208
2017-11-08T11:09:06.154Z,6116
2017-11-08T11:10:20.762Z,6016
2017-11-08T11:11:05.846Z,5932
2017-11-08T11:13:05.866Z,5608
2017-11-08T11:14:06.261Z,5564
2017-11-08T11:15:05.938Z,5496
2017-11-08T11:16:06.278Z,5472
2017-11-08T11:17:05.645Z,5504
2017-11-08T11:18:06.345Z,5456
2017-11-08T11:19:05.998Z,5332
2017-11-08T11:20:06.352Z,5280
2017-11-08T11:22:06.402Z,5224
2017-11-08T11:24:06.101Z,5264
2017-11-08T11:25:05.792Z,4960
2017-11-08T11:27:06.842Z,4808
2017-11-08T11:28:21.122Z,4684
2017-11-08T11:29:06.206Z,4452
2017-11-08T11:30:06.536Z,4404
2017-11-08T11:31:06.252Z,4404
2017-11-08T11:32:06.242Z,4324
2017-11-08T11:33:06.598Z,4232
2017-11-08T11:34:20.917Z,4036
2017-11-08T11:35:06.670Z,4016
2017-11-08T11:36:20.938Z,3840
2017-11-08T11:37:06.358Z,3588
2017-11-08T11:38:06.077Z,3448
2017-11-08T11:39:06.717Z,3304
2017-11-08T11:40:21.350Z,3216
2017-11-08T11:41:06.450Z,3252
2017-11-08T11:42:35.999Z,3408
2017-11-08T11:43:06.829Z,3416
2017-11-08T11:44:06.819Z,3532
2017-11-08T11:45:06.181Z,3744
2017-11-08T11:46:06.842Z,3940
2017-11-08T11:47:21.477Z,4144
2017-11-08T11:48:06.268Z,4216
2017-11-08T11:49:06.604Z,4336
2017-11-08T11:50:06.923Z,4492
2017-11-08T11:51:06.631Z,4640
2017-11-08T11:52:06.982Z,4792
2017-11-08T11:53:06.678Z,4940
2017-11-08T11:54:06.696Z,5040
2017-11-08T11:55:06.711Z,5100
2017-11-08T11:56:21.670Z,5128
2017-11-08T11:57:21.353Z,5136
2017-11-08T11:58:06.443Z,5116
2017-11-08T11:59:07.132Z,5080
2017-11-08T12:00:21.418Z,5040
2017-11-08T12:01:06.833Z,5016
2017-11-08T12:02:07.182Z,4976
2017-11-08T12:03:06.550Z,4904
2017-11-08T12:04:06.877Z,4828
2017-11-08T12:05:06.590Z,4756
2017-11-08T12:06:06.941Z,4676
2017-11-08T12:07:07.283Z,4596
2017-11-08T12:08:21.914Z,4488
2017-11-08T12:09:07.331Z,4436
2017-11-08T12:10:07.023Z,4384
2017-11-08T12:11:07.044Z,4328
2017-11-08T12:12:21.991Z,4272
2017-11-08T12:13:07.371Z,4236
2017-11-08T12:14:07.436Z,4172
2017-11-08T12:15:07.471Z,4104
2017-11-08T12:16:07.123Z,4048
2017-11-08T12:17:07.154Z,3996
2017-11-08T12:18:22.086Z,3936
2017-11-08T12:19:07.172Z,3896
2017-11-08T12:20:07.204Z,3868
2017-11-08T12:21:07.544Z,3840
2017-11-08T12:23:06.945Z,3824
2017-11-08T12:24:07.268Z,3832
2017-11-08T12:25:07.632Z,3816
2017-11-08T12:27:07.683Z,3780
2017-11-08T12:28:07.692Z,3756
2017-11-08T12:29:21.991Z,3720
2017-11-08T12:30:09.125Z,3688
2017-11-08T12:31:07.743Z,3664
2017-11-08T12:32:07.774Z,3640
2017-11-08T12:33:07.475Z,3640
2017-11-08T12:34:07.824Z,3644
2017-11-08T12:35:07.488Z,3668
2017-11-08T12:36:07.512Z,3696
2017-11-08T12:37:07.544Z,3740
2017-11-08T12:38:07.881Z,3792
2017-11-08T12:39:07.248Z,3844
2017-11-08T12:40:07.272Z,3900
2017-11-08T12:41:07.621Z,3928
2017-11-08T12:42:07.644Z,3940
2017-11-08T12:43:22.926Z,3964
2017-11-08T12:44:07.655Z,3968
2017-11-08T12:45:22.621Z,3984
2017-11-08T12:46:07.702Z,3996
2017-11-08T12:47:22.674Z,4052
2017-11-08T12:48:08.063Z,4084
2017-11-08T12:49:08.101Z,4104
2017-11-08T12:50:08.100Z,4140
2017-11-08T12:51:22.736Z,4188
2017-11-08T12:52:08.160Z,4200
2017-11-08T12:53:07.523Z,4200
2017-11-08T12:54:07.850Z,4224
2017-11-08T12:55:07.882Z,4260
2017-11-08T12:56:07.594Z,4300
2017-11-08T12:57:08.237Z,4388
2017-11-08T12:58:08.288Z,4512
2017-11-08T12:59:07.958Z,4624
2017-11-08T13:00:07.978Z,4636
2017-11-08T13:01:22.591Z,4584
2017-11-08T13:03:08.352Z,4688
2017-11-08T13:04:08.061Z,4660
2017-11-08T13:05:22.994Z,4668
2017-11-08T13:06:23.045Z,4620
2017-11-08T13:07:08.446Z,4628
2017-11-08T13:08:22.729Z,4644
2017-11-08T13:09:08.467Z,4640
2017-11-08T13:10:08.162Z,4696
2017-11-08T13:11:08.530Z,4760
2017-11-08T13:12:08.533Z,4796
2017-11-08T13:13:08.238Z,4796
2017-11-08T13:14:08.248Z,4804
2017-11-08T13:15:22.540Z,4700
2017-11-08T13:16:08.280Z,4668
2017-11-08T13:17:23.239Z,4508
2017-11-08T13:18:08.336Z,4476
2017-11-08T13:19:08.666Z,4420
2017-11-08T13:20:08.355Z,4364
2017-11-08T13:21:08.062Z,4272
2017-11-08T13:22:23.353Z,4184
2017-11-08T13:23:08.417Z,4156
2017-11-08T13:24:08.757Z,4108
2017-11-08T13:25:23.412Z,3952
2017-11-08T13:26:08.502Z,3880
2017-11-08T13:27:08.498Z,3800
2017-11-08T13:28:08.509Z,3660
2017-11-08T13:29:08.890Z,3516
2017-11-08T13:30:08.572Z,3452
2017-11-08T13:31:23.191Z,3432
2017-11-08T13:32:23.539Z,3412
2017-11-08T13:33:23.555Z,3320
2017-11-08T13:34:08.634Z,3216
2017-11-08T13:35:08.980Z,3180
2017-11-08T13:36:08.994Z,3164
2017-11-08T13:37:09.031Z,3120
2017-11-08T13:38:08.392Z,3192
2017-11-08T13:39:23.674Z,3248
2017-11-08T13:40:08.750Z,3288
2017-11-08T13:41:08.785Z,3352
2017-11-08T13:42:08.484Z,3524
2017-11-08T13:43:09.130Z,3604
2017-11-08T13:44:09.182Z,3680
2017-11-08T13:45:08.862Z,3652
2017-11-08T13:46:08.865Z,3640
2017-11-08T13:47:08.896Z,3556
2017-11-08T13:48:09.249Z,3476
2017-11-08T13:49:09.248Z,3444
2017-11-08T13:50:08.963Z,3376
2017-11-08T13:51:09.309Z,3312
2017-11-08T13:52:09.318Z,3240
2017-11-08T13:53:23.942Z,3120
2017-11-08T13:54:23.952Z,3048
2017-11-08T13:55:09.399Z,2960
2017-11-08T13:56:09.081Z,2872
2017-11-08T13:57:09.119Z,2792
2017-11-08T13:58:09.112Z,2720
2017-11-08T13:59:09.466Z,2648
2017-11-08T14:00:08.827Z,2544
2017-11-08T14:01:09.154Z,2432
2017-11-08T14:02:09.515Z,2368
2017-11-08T14:03:09.212Z,2320
2017-11-08T14:04:24.190Z,2360
2017-11-08T14:05:08.927Z,2308
2017-11-08T14:06:09.277Z,2252
2017-11-08T14:07:09.277Z,2220
2017-11-08T14:08:09.308Z,2200
2017-11-08T14:09:09.644Z,2176
2017-11-08T14:10:09.335Z,2140
2017-11-08T14:11:09.366Z,2072
2017-11-08T14:12:24.317Z,1928
2017-11-08T14:13:09.084Z,1876
2017-11-08T14:15:09.428Z,1764
2017-11-08T14:16:08.811Z,1708
2017-11-08T14:17:09.799Z,1648
2017-11-08T14:18:24.436Z,1580
2017-11-08T14:19:09.577Z,1512
2017-11-08T14:20:24.492Z,1400
2017-11-08T14:21:09.889Z,1356
2017-11-08T14:22:09.887Z,1300
2017-11-08T14:24:09.951Z,1140
2017-11-08T14:25:09.645Z,1072
2017-11-08T14:26:09.980Z,1040
2017-11-08T14:27:09.659Z,996
2017-11-08T14:28:10.014Z,956
2017-11-08T14:29:10.020Z,900
2017-11-08T14:30:09.722Z,856
2017-11-08T14:31:09.729Z,812
2017-11-08T14:32:24.695Z,784
2017-11-08T14:33:10.111Z,768
2017-11-08T14:34:09.799Z,744
2017-11-08T14:35:10.141Z,724
2017-11-08T14:36:24.431Z,708
2017-11-08T14:37:09.858Z,688
2017-11-08T14:40:24.830Z,612
2017-11-08T14:41:09.921Z,604
2017-11-08T14:42:09.963Z,592
2017-11-08T14:43:10.311Z,580
2017-11-08T14:44:10.001Z,568
2017-11-08T14:45:10.001Z,560
2017-11-08T14:46:10.036Z,544
2017-11-08T14:47:10.370Z,536
2017-11-08T14:48:24.673Z,528
2017-11-08T14:49:10.417Z,516
2017-11-08T14:50:10.448Z,488
2017-11-08T14:51:10.143Z,464
2017-11-08T14:52:24.756Z,428
2017-11-08T14:53:10.151Z,404
2017-11-08T14:54:10.512Z,380
2017-11-08T14:55:10.187Z,360
2017-11-08T14:56:09.575Z,348
2017-11-08T14:57:10.229Z,324
2017-11-08T14:58:10.246Z,304
2017-11-08T14:59:25.197Z,272
2017-11-08T15:00:09.977Z,256